Cape Cod — WBK3243 — position and weather

sailwx.info

Track history (hours):
 
Tides and Currents Weather Stations Pressure Air Temp Water Temp Dewpoint Dewpoint Depression Visibility Wind Speed Wind Dir Waves Ship Positions

Cape Cod

Owner: MORAN TOWING CORPORATION, New Canaan, CT. More information available from US FCC via Universal Licensing System and Coast Guard Vessel Documentation Center.

Last reported at 2014-Nov-22 08:30 UTC. Time now 2014-Dec-23 04:21 UTC.
Position N 39°46' W 075°29'.
Warning: this ship's position is 30 days out of date.

Length 33 m; draft 4.8 m.

Type: Tug. MMSI: 366939770.

Date/timePositionNaut miles runAvg speedWind from/ knotsBaromVisibWave heightAir tempDewpointWater temp
2014-Nov-22 08:30N 39°46' W 075°29'1010.5
2014-Nov-22 07:33N 39°37' W 075°34'2 1.6
2014-Nov-22 06:33N 39°35' W 075°36'6 6.3
2014-Nov-22 05:33N 39°41' W 075°31'2 2.0
2014-Nov-22 04:20N 39°43' W 075°31'0 0.0
2014-Nov-22 03:29N 39°43' W 075°31'3 3.1
2014-Nov-22 02:33N 39°45' W 075°29'2 0.3
2014-Nov-21 18:10N 39°43' W 075°30'1 0.4
2014-Nov-21 16:13N 39°43' W 075°31'0 0.0
2014-Nov-21 15:29N 39°43' W 075°31'0 0.0
2014-Nov-21 14:32N 39°43' W 075°31'8 8.2
2014-Nov-21 13:34N 39°35' W 075°34'1 1.1
2014-Nov-21 12:33N 39°35' W 075°35'3 2.9
2014-Nov-21 11:33N 39°33' W 075°32'3 2.8
2014-Nov-21 10:33N 39°35' W 075°34'7 7.2
2014-Nov-21 09:33N 39°42' W 075°31'  
2014-Nov-16 01:16N 39°44' W 075°30'1 1.5
2014-Nov-16 00:33N 39°43' W 075°31'0 0.0
2014-Nov-14 23:18N 39°43' W 075°31'1 1.2
2014-Nov-14 22:33N 39°42' W 075°31'1 0.8
2014-Nov-14 21:33N 39°43' W 075°31'0 0.1
2014-Nov-14 20:28N 39°43' W 075°31'  
2014-Nov-12 09:33N 39°53' W 075°11'0 0.0
2014-Nov-12 08:33N 39°53' W 075°11'  
Track history (hours):
 
Tides and Currents Weather Stations Pressure Air Temp Water Temp Dewpoint Dewpoint Depression Visibility Wind Speed Wind Dir Waves Ship Positions

Cape Cod

Owner: MORAN TOWING CORPORATION, New Canaan, CT. More information available from US FCC via Universal Licensing System and Coast Guard Vessel Documentation Center.

Last reported at 2014-Nov-22 08:30 UTC. Time now 2014-Dec-23 04:21 UTC.
Position N 39°46' W 075°29'.
Warning: this ship's position is 30 days out of date.

Length 33 m; draft 4.8 m.

Type: Tug. MMSI: 366939770.

Date/timePositionNaut miles runAvg speedWind from/ knotsBaromVisibWave heightAir tempDewpointWater temp
2014-Nov-22 08:30N 39°46' W 075°29'1010.5
2014-Nov-22 07:33N 39°37' W 075°34'2 1.6
2014-Nov-22 06:33N 39°35' W 075°36'6 6.3
2014-Nov-22 05:33N 39°41' W 075°31'2 2.0
2014-Nov-22 04:20N 39°43' W 075°31'0 0.0
2014-Nov-22 03:29N 39°43' W 075°31'3 3.1
2014-Nov-22 02:33N 39°45' W 075°29'2 0.3
2014-Nov-21 18:10N 39°43' W 075°30'1 0.4
2014-Nov-21 16:13N 39°43' W 075°31'0 0.0
2014-Nov-21 15:29N 39°43' W 075°31'0 0.0
2014-Nov-21 14:32N 39°43' W 075°31'8 8.2
2014-Nov-21 13:34N 39°35' W 075°34'1 1.1
2014-Nov-21 12:33N 39°35' W 075°35'3 2.9
2014-Nov-21 11:33N 39°33' W 075°32'3 2.8
2014-Nov-21 10:33N 39°35' W 075°34'7 7.2
2014-Nov-21 09:33N 39°42' W 075°31'  
2014-Nov-16 01:16N 39°44' W 075°30'1 1.5
2014-Nov-16 00:33N 39°43' W 075°31'0 0.0
2014-Nov-14 23:18N 39°43' W 075°31'1 1.2
2014-Nov-14 22:33N 39°42' W 075°31'1 0.8
2014-Nov-14 21:33N 39°43' W 075°31'0 0.1
2014-Nov-14 20:28N 39°43' W 075°31'  
2014-Nov-12 09:33N 39°53' W 075°11'0 0.0
2014-Nov-12 08:33N 39°53' W 075°11'  

Dump ship's entire track history